Terminal Aerodrome Forecast
Issued by NWS Paducah, KY

Home | Current Version | Previous Version | Text Only | Print | Product List | Glossary On
Versions: 1 2 3 4 5 6 7 8 9 10 11 12 13
000
FTUS43 KPAH 262300
TAFPAH
TAF
KPAH 262320Z 2700/2724 22008KT P6SM BKN120
     FM271500 27012G18KT P6SM SCT040 BKN180
     FM272200 30012G20KT P6SM SCT150=

USA.gov is the U.S. government's official web portal to all federal, state and local government web resources and services.